sensor_id;sensor_type;location;lat;lon;timestamp;temperature;humidity
52621;DHT22;38515;53.160;6.990;2024-03-08T00:00:00;0.40;1.00
52621;DHT22;38515;53.160;6.990;2024-03-08T00:02:36;0.40;99.90
52621;DHT22;38515;53.160;6.990;2024-03-08T00:05:03;0.30;99.90
52621;DHT22;38515;53.160;6.990;2024-03-08T00:07:29;0.40;99.90
52621;DHT22;38515;53.160;6.990;2024-03-08T00:09:55;0.50;99.90
52621;DHT22;38515;53.160;6.990;2024-03-08T00:12:20;0.50;1.00
52621;DHT22;38515;53.160;6.990;2024-03-08T00:14:46;0.50;1.00
52621;DHT22;38515;53.160;6.990;2024-03-08T00:17:12;0.50;1.00
52621;DHT22;38515;53.160;6.990;2024-03-08T00:19:37;0.00;1.00
52621;DHT22;38515;53.160;6.990;2024-03-08T00:22:03;0.50;99.90
52621;DHT22;38515;53.160;6.990;2024-03-08T00:24:29;0.60;1.00
52621;DHT22;38515;53.160;6.990;2024-03-08T00:26:56;0.60;1.00
52621;DHT22;38515;53.160;6.990;2024-03-08T00:29:21;0.20;97.60
52621;DHT22;38515;53.160;6.990;2024-03-08T00:31:47;1.00;1.00
52621;DHT22;38515;53.160;6.990;2024-03-08T00:34:13;0.80;99.90
52621;DHT22;38515;53.160;6.990;2024-03-08T00:36:39;0.80;91.60
52621;DHT22;38515;53.160;6.990;2024-03-08T00:39:05;0.80;99.90
52621;DHT22;38515;53.160;6.990;2024-03-08T00:41:33;0.90;99.90
52621;DHT22;38515;53.160;6.990;2024-03-08T00:43:59;1.40;99.90
52621;DHT22;38515;53.160;6.990;2024-03-08T00:46:24;0.90;97.70
52621;DHT22;38515;53.160;6.990;2024-03-08T00:48:50;1.00;66.00
52621;DHT22;38515;53.160;6.990;2024-03-08T00:51:16;1.00;24.80
52621;DHT22;38515;53.160;6.990;2024-03-08T00:53:42;0.90;1.00
52621;DHT22;38515;53.160;6.990;2024-03-08T00:56:08;0.80;1.00
52621;DHT22;38515;53.160;6.990;2024-03-08T00:58:37;1.00;99.90
52621;DHT22;38515;53.160;6.990;2024-03-08T01:01:03;1.00;99.90
52621;DHT22;38515;53.160;6.990;2024-03-08T01:03:33;-0.20;99.90
52621;DHT22;38515;53.160;6.990;2024-03-08T01:05:59;1.00;99.90
52621;DHT22;38515;53.160;6.990;2024-03-08T01:08:27;1.00;99.90
52621;DHT22;38515;53.160;6.990;2024-03-08T01:10:53;1.00;99.90
52621;DHT22;38515;53.160;6.990;2024-03-08T01:13:19;0.90;99.90
52621;DHT22;38515;53.160;6.990;2024-03-08T01:15:45;1.00;99.90
52621;DHT22;38515;53.160;6.990;2024-03-08T01:18:11;0.90;99.90
52621;DHT22;38515;53.160;6.990;2024-03-08T01:20:37;0.90;99.90
52621;DHT22;38515;53.160;6.990;2024-03-08T01:23:03;1.00;99.90
52621;DHT22;38515;53.160;6.990;2024-03-08T01:25:33;0.90;99.90
52621;DHT22;38515;53.160;6.990;2024-03-08T01:27:59;0.80;99.90
52621;DHT22;38515;53.160;6.990;2024-03-08T01:30:25;0.80;94.90
52621;DHT22;38515;53.160;6.990;2024-03-08T01:32:50;1.30;93.30
52621;DHT22;38515;53.160;6.990;2024-03-08T01:35:16;1.10;99.90
52621;DHT22;38515;53.160;6.990;2024-03-08T01:37:43;0.80;55.30
52621;DHT22;38515;53.160;6.990;2024-03-08T01:40:08;0.70;49.30
52621;DHT22;38515;53.160;6.990;2024-03-08T01:42:34;0.70;38.70
52621;DHT22;38515;53.160;6.990;2024-03-08T01:45:05;0.70;54.20
52621;DHT22;38515;53.160;6.990;2024-03-08T01:47:31;0.70;52.30
52621;DHT22;38515;53.160;6.990;2024-03-08T01:50:01;0.70;43.90
52621;DHT22;38515;53.160;6.990;2024-03-08T01:52:29;0.70;47.00
52621;DHT22;38515;53.160;6.990;2024-03-08T01:55:02;0.70;36.60
52621;DHT22;38515;53.160;6.990;2024-03-08T01:57:28;0.70;37.40
52621;DHT22;38515;53.160;6.990;2024-03-08T01:59:56;0.70;11.40
52621;DHT22;38515;53.160;6.990;2024-03-08T02:02:22;0.60;1.00
52621;DHT22;38515;53.160;6.990;2024-03-08T02:04:48;0.60;1.00
52621;DHT22;38515;53.160;6.990;2024-03-08T02:07:14;0.60;1.00
52621;DHT22;38515;53.160;6.990;2024-03-08T02:09:40;0.60;1.00
52621;DHT22;38515;53.160;6.990;2024-03-08T02:12:06;0.60;1.00
52621;DHT22;38515;53.160;6.990;2024-03-08T02:14:33;0.50;1.00
52621;DHT22;38515;53.160;6.990;2024-03-08T02:17:02;0.50;1.00
52621;DHT22;38515;53.160;6.990;2024-03-08T02:19:28;1.10;1.00
52621;DHT22;38515;53.160;6.990;2024-03-08T02:21:54;0.40;1.00
52621;DHT22;38515;53.160;6.990;2024-03-08T02:24:20;0.40;1.00
52621;DHT22;38515;53.160;6.990;2024-03-08T02:26:46;0.40;1.00
52621;DHT22;38515;53.160;6.990;2024-03-08T02:29:14;1.30;1.00
52621;DHT22;38515;53.160;6.990;2024-03-08T02:31:40;0.50;1.00
52621;DHT22;38515;53.160;6.990;2024-03-08T02:34:06;0.30;1.00
52621;DHT22;38515;53.160;6.990;2024-03-08T02:36:31;0.30;1.00
52621;DHT22;38515;53.160;6.990;2024-03-08T02:39:02;0.20;1.00
52621;DHT22;38515;53.160;6.990;2024-03-08T02:41:28;0.30;1.00
52621;DHT22;38515;53.160;6.990;2024-03-08T02:43:54;0.20;1.00
52621;DHT22;38515;53.160;6.990;2024-03-08T02:46:20;0.20;1.00
52621;DHT22;38515;53.160;6.990;2024-03-08T02:48:46;0.20;1.00
52621;DHT22;38515;53.160;6.990;2024-03-08T02:51:12;0.30;1.00
52621;DHT22;38515;53.160;6.990;2024-03-08T02:53:39;0.20;1.00
52621;DHT22;38515;53.160;6.990;2024-03-08T02:56:05;0.30;1.00
52621;DHT22;38515;53.160;6.990;2024-03-08T02:58:34;0.30;1.00
52621;DHT22;38515;53.160;6.990;2024-03-08T03:00:59;0.30;1.00
52621;DHT22;38515;53.160;6.990;2024-03-08T03:03:25;0.30;1.00
52621;DHT22;38515;53.160;6.990;2024-03-08T03:05:52;1.10;99.90
52621;DHT22;38515;53.160;6.990;2024-03-08T03:08:21;0.30;99.90
52621;DHT22;38515;53.160;6.990;2024-03-08T03:10:47;0.40;99.90
52621;DHT22;38515;53.160;6.990;2024-03-08T03:13:12;0.40;99.90
52621;DHT22;38515;53.160;6.990;2024-03-08T03:15:39;0.40;99.90
52621;DHT22;38515;53.160;6.990;2024-03-08T03:18:07;2.10;99.90
52621;DHT22;38515;53.160;6.990;2024-03-08T03:20:33;0.30;1.00
52621;DHT22;38515;53.160;6.990;2024-03-08T03:23:05;0.60;77.60
52621;DHT22;38515;53.160;6.990;2024-03-08T03:25:33;0.30;88.80
52621;DHT22;38515;53.160;6.990;2024-03-08T03:28:01;0.30;23.80
52621;DHT22;38515;53.160;6.990;2024-03-08T03:30:27;0.30;1.00
52621;DHT22;38515;53.160;6.990;2024-03-08T03:32:56;0.30;1.00
52621;DHT22;38515;53.160;6.990;2024-03-08T03:35:26;0.20;1.00
52621;DHT22;38515;53.160;6.990;2024-03-08T03:37:52;0.30;1.00
52621;DHT22;38515;53.160;6.990;2024-03-08T03:40:31;0.70;1.00
52621;DHT22;38515;53.160;6.990;2024-03-08T03:42:57;0.20;1.00
52621;DHT22;38515;53.160;6.990;2024-03-08T03:45:24;0.20;1.00
52621;DHT22;38515;53.160;6.990;2024-03-08T03:47:50;0.10;1.00
52621;DHT22;38515;53.160;6.990;2024-03-08T03:50:17;0.10;99.90
52621;DHT22;38515;53.160;6.990;2024-03-08T03:52:47;0.10;99.90
52621;DHT22;38515;53.160;6.990;2024-03-08T03:55:14;0.00;99.90
52621;DHT22;38515;53.160;6.990;2024-03-08T03:57:40;0.00;99.90
52621;DHT22;38515;53.160;6.990;2024-03-08T04:00:07;0.00;99.90
52621;DHT22;38515;53.160;6.990;2024-03-08T04:02:40;0.00;1.00
52621;DHT22;38515;53.160;6.990;2024-03-08T04:05:07;0.40;1.00
52621;DHT22;38515;53.160;6.990;2024-03-08T04:07:33;1.50;1.00
52621;DHT22;38515;53.160;6.990;2024-03-08T04:10:03;-0.20;1.00
52621;DHT22;38515;53.160;6.990;2024-03-08T04:12:29;-0.10;1.00
52621;DHT22;38515;53.160;6.990;2024-03-08T04:14:55;-0.10;1.00
52621;DHT22;38515;53.160;6.990;2024-03-08T04:17:22;-0.10;1.00
52621;DHT22;38515;53.160;6.990;2024-03-08T04:19:47;-0.10;1.00
52621;DHT22;38515;53.160;6.990;2024-03-08T04:22:14;0.90;1.00
52621;DHT22;38515;53.160;6.990;2024-03-08T04:24:39;-0.10;1.00
52621;DHT22;38515;53.160;6.990;2024-03-08T04:27:06;-0.10;1.00
52621;DHT22;38515;53.160;6.990;2024-03-08T04:29:32;-0.10;1.00
52621;DHT22;38515;53.160;6.990;2024-03-08T04:32:01;-0.50;1.00
52621;DHT22;38515;53.160;6.990;2024-03-08T04:34:29;0.20;28.30
52621;DHT22;38515;53.160;6.990;2024-03-08T04:36:57;-0.10;99.90
52621;DHT22;38515;53.160;6.990;2024-03-08T04:39:23;-0.10;99.90
52621;DHT22;38515;53.160;6.990;2024-03-08T04:41:49;-0.20;99.90
52621;DHT22;38515;53.160;6.990;2024-03-08T04:44:15;-0.20;99.90
52621;DHT22;38515;53.160;6.990;2024-03-08T04:46:43;-1.10;99.90
52621;DHT22;38515;53.160;6.990;2024-03-08T04:49:09;-0.20;99.90
52621;DHT22;38515;53.160;6.990;2024-03-08T04:51:37;-0.10;99.90
52621;DHT22;38515;53.160;6.990;2024-03-08T04:54:03;-0.10;99.90
52621;DHT22;38515;53.160;6.990;2024-03-08T04:56:30;0.20;99.90
52621;DHT22;38515;53.160;6.990;2024-03-08T04:58:56;0.20;99.90
52621;DHT22;38515;53.160;6.990;2024-03-08T05:01:21;-0.20;99.90
52621;DHT22;38515;53.160;6.990;2024-03-08T05:03:47;-0.20;99.90
52621;DHT22;38515;53.160;6.990;2024-03-08T05:06:16;0.50;99.90
52621;DHT22;38515;53.160;6.990;2024-03-08T05:08:41;-1.10;99.90
52621;DHT22;38515;53.160;6.990;2024-03-08T05:11:07;-0.20;34.20
52621;DHT22;38515;53.160;6.990;2024-03-08T05:13:33;-0.20;99.90
52621;DHT22;38515;53.160;6.990;2024-03-08T05:16:00;-0.30;99.90
52621;DHT22;38515;53.160;6.990;2024-03-08T05:18:26;0.00;99.90
52621;DHT22;38515;53.160;6.990;2024-03-08T05:20:54;0.80;1.00
52621;DHT22;38515;53.160;6.990;2024-03-08T05:23:19;-0.30;99.90
52621;DHT22;38515;53.160;6.990;2024-03-08T05:25:46;-0.30;99.90
52621;DHT22;38515;53.160;6.990;2024-03-08T05:28:14;-0.30;99.90
52621;DHT22;38515;53.160;6.990;2024-03-08T05:30:40;-0.30;99.90
52621;DHT22;38515;53.160;6.990;2024-03-08T05:33:06;-0.30;99.90
52621;DHT22;38515;53.160;6.990;2024-03-08T05:35:36;-0.40;99.90
52621;DHT22;38515;53.160;6.990;2024-03-08T05:38:02;-0.30;24.00
52621;DHT22;38515;53.160;6.990;2024-03-08T05:40:27;-0.30;99.90
52621;DHT22;38515;53.160;6.990;2024-03-08T05:42:58;-0.40;99.90
52621;DHT22;38515;53.160;6.990;2024-03-08T05:45:24;-0.40;99.90
52621;DHT22;38515;53.160;6.990;2024-03-08T05:47:50;0.20;99.90
52621;DHT22;38515;53.160;6.990;2024-03-08T05:50:17;-0.40;99.90
52621;DHT22;38515;53.160;6.990;2024-03-08T05:52:43;-0.40;99.90
52621;DHT22;38515;53.160;6.990;2024-03-08T05:55:09;-0.40;99.90
52621;DHT22;38515;53.160;6.990;2024-03-08T05:57:35;-0.40;99.90
52621;DHT22;38515;53.160;6.990;2024-03-08T06:00:04;-0.40;99.90
52621;DHT22;38515;53.160;6.990;2024-03-08T06:02:30;-0.50;99.90
52621;DHT22;38515;53.160;6.990;2024-03-08T06:04:55;-0.40;99.90
52621;DHT22;38515;53.160;6.990;2024-03-08T06:07:21;-0.40;99.90
52621;DHT22;38515;53.160;6.990;2024-03-08T06:09:47;1.00;99.90
52621;DHT22;38515;53.160;6.990;2024-03-08T06:12:13;-0.40;99.90
52621;DHT22;38515;53.160;6.990;2024-03-08T06:14:44;-0.40;99.90
52621;DHT22;38515;53.160;6.990;2024-03-08T06:17:10;-0.40;99.90
52621;DHT22;38515;53.160;6.990;2024-03-08T06:19:36;-0.40;99.90
52621;DHT22;38515;53.160;6.990;2024-03-08T06:22:03;-0.30;99.90
52621;DHT22;38515;53.160;6.990;2024-03-08T06:24:31;-0.30;99.90
52621;DHT22;38515;53.160;6.990;2024-03-08T06:26:58;-0.30;99.90
52621;DHT22;38515;53.160;6.990;2024-03-08T06:29:23;-0.30;99.90
52621;DHT22;38515;53.160;6.990;2024-03-08T06:31:49;-0.30;99.90
52621;DHT22;38515;53.160;6.990;2024-03-08T06:34:15;-0.20;99.90
52621;DHT22;38515;53.160;6.990;2024-03-08T06:36:41;-0.20;99.90
52621;DHT22;38515;53.160;6.990;2024-03-08T06:39:07;-0.20;99.90
52621;DHT22;38515;53.160;6.990;2024-03-08T06:41:36;-0.20;99.90
52621;DHT22;38515;53.160;6.990;2024-03-08T06:44:02;-0.10;99.90
52621;DHT22;38515;53.160;6.990;2024-03-08T06:46:28;-0.10;99.90
52621;DHT22;38515;53.160;6.990;2024-03-08T06:48:53;-0.10;99.90
52621;DHT22;38515;53.160;6.990;2024-03-08T06:51:19;0.30;97.40
52621;DHT22;38515;53.160;6.990;2024-03-08T06:53:45;1.40;99.90
52621;DHT22;38515;53.160;6.990;2024-03-08T06:56:11;0.10;1.00
52621;DHT22;38515;53.160;6.990;2024-03-08T06:58:36;1.60;94.00
52621;DHT22;38515;53.160;6.990;2024-03-08T07:01:03;0.20;1.00
52621;DHT22;38515;53.160;6.990;2024-03-08T07:03:33;0.20;56.00
52621;DHT22;38515;53.160;6.990;2024-03-08T07:05:58;0.30;87.90
52621;DHT22;38515;53.160;6.990;2024-03-08T07:08:25;0.40;83.70
52621;DHT22;38515;53.160;6.990;2024-03-08T07:10:53;0.40;90.10
52621;DHT22;38515;53.160;6.990;2024-03-08T07:13:18;0.50;30.90
52621;DHT22;38515;53.160;6.990;2024-03-08T07:15:44;0.60;1.00
52621;DHT22;38515;53.160;6.990;2024-03-08T07:18:11;-0.40;25.70
52621;DHT22;38515;53.160;6.990;2024-03-08T07:20:40;1.00;1.00
52621;DHT22;38515;53.160;6.990;2024-03-08T07:23:06;1.50;1.00
52621;DHT22;38515;53.160;6.990;2024-03-08T07:25:34;1.80;1.00
52621;DHT22;38515;53.160;6.990;2024-03-08T07:28:00;2.30;1.00
52621;DHT22;38515;53.160;6.990;2024-03-08T07:30:27;2.70;99.90
52621;DHT22;38515;53.160;6.990;2024-03-08T07:33:11;3.20;99.90
52621;DHT22;38515;53.160;6.990;2024-03-08T07:35:38;3.60;90.60
52621;DHT22;38515;53.160;6.990;2024-03-08T07:38:05;3.90;1.00
52621;DHT22;38515;53.160;6.990;2024-03-08T07:40:37;4.40;1.00
52621;DHT22;38515;53.160;6.990;2024-03-08T07:43:06;4.40;99.90
52621;DHT22;38515;53.160;6.990;2024-03-08T07:45:32;4.90;99.90
52621;DHT22;38515;53.160;6.990;2024-03-08T07:47:58;4.90;99.90
52621;DHT22;38515;53.160;6.990;2024-03-08T07:50:24;6.10;99.90
52621;DHT22;38515;53.160;6.990;2024-03-08T07:52:49;5.20;99.90
52621;DHT22;38515;53.160;6.990;2024-03-08T07:55:15;5.00;99.90
52621;DHT22;38515;53.160;6.990;2024-03-08T07:57:41;4.80;1.00
52621;DHT22;38515;53.160;6.990;2024-03-08T08:00:08;4.60;1.00
52621;DHT22;38515;53.160;6.990;2024-03-08T08:02:35;4.80;99.90
52621;DHT22;38515;53.160;6.990;2024-03-08T08:05:01;5.10;99.90
52621;DHT22;38515;53.160;6.990;2024-03-08T08:07:27;5.40;1.00
52621;DHT22;38515;53.160;6.990;2024-03-08T08:09:53;5.50;99.90
52621;DHT22;38515;53.160;6.990;2024-03-08T08:12:19;5.70;99.90
52621;DHT22;38515;53.160;6.990;2024-03-08T08:14:45;6.70;1.00
52621;DHT22;38515;53.160;6.990;2024-03-08T08:17:10;6.20;99.90
52621;DHT22;38515;53.160;6.990;2024-03-08T08:19:37;5.80;1.00
52621;DHT22;38515;53.160;6.990;2024-03-08T08:22:04;6.50;99.90
52621;DHT22;38515;53.160;6.990;2024-03-08T08:24:30;5.40;99.90
52621;DHT22;38515;53.160;6.990;2024-03-08T08:26:55;5.50;99.90
52621;DHT22;38515;53.160;6.990;2024-03-08T08:29:21;5.60;99.90
52621;DHT22;38515;53.160;6.990;2024-03-08T08:31:48;5.80;99.90
52621;DHT22;38515;53.160;6.990;2024-03-08T08:34:16;5.80;99.90
52621;DHT22;38515;53.160;6.990;2024-03-08T08:36:44;5.90;99.90
52621;DHT22;38515;53.160;6.990;2024-03-08T08:39:10;6.20;99.90
52621;DHT22;38515;53.160;6.990;2024-03-08T08:41:39;5.90;99.90
52621;DHT22;38515;53.160;6.990;2024-03-08T08:44:09;6.10;99.90
52621;DHT22;38515;53.160;6.990;2024-03-08T08:46:39;6.20;99.90
52621;DHT22;38515;53.160;6.990;2024-03-08T08:49:05;6.00;99.90
52621;DHT22;38515;53.160;6.990;2024-03-08T08:51:32;5.70;99.90
52621;DHT22;38515;53.160;6.990;2024-03-08T08:54:00;5.90;99.90
52621;DHT22;38515;53.160;6.990;2024-03-08T08:56:26;5.30;99.90
52621;DHT22;38515;53.160;6.990;2024-03-08T08:58:52;5.10;99.90
52621;DHT22;38515;53.160;6.990;2024-03-08T09:01:20;5.10;99.90
52621;DHT22;38515;53.160;6.990;2024-03-08T09:03:46;5.10;99.90
52621;DHT22;38515;53.160;6.990;2024-03-08T09:06:12;5.10;99.90
52621;DHT22;38515;53.160;6.990;2024-03-08T09:08:39;5.70;99.90
52621;DHT22;38515;53.160;6.990;2024-03-08T09:11:05;5.00;99.90
52621;DHT22;38515;53.160;6.990;2024-03-08T09:13:31;4.70;99.90
52621;DHT22;38515;53.160;6.990;2024-03-08T09:15:57;4.60;77.50
52621;DHT22;38515;53.160;6.990;2024-03-08T09:18:22;4.80;96.90
52621;DHT22;38515;53.160;6.990;2024-03-08T09:20:49;5.00;4.30
52621;DHT22;38515;53.160;6.990;2024-03-08T09:23:19;5.10;24.40
52621;DHT22;38515;53.160;6.990;2024-03-08T09:25:45;5.10;1.00
52621;DHT22;38515;53.160;6.990;2024-03-08T09:28:12;5.00;1.00
52621;DHT22;38515;53.160;6.990;2024-03-08T09:30:38;5.20;2.70
52621;DHT22;38515;53.160;6.990;2024-03-08T09:33:05;5.30;1.00
52621;DHT22;38515;53.160;6.990;2024-03-08T09:35:31;6.00;1.00
52621;DHT22;38515;53.160;6.990;2024-03-08T09:37:57;5.00;1.00
52621;DHT22;38515;53.160;6.990;2024-03-08T09:40:23;5.90;1.00
52621;DHT22;38515;53.160;6.990;2024-03-08T09:42:51;5.50;1.00
52621;DHT22;38515;53.160;6.990;2024-03-08T09:45:20;4.90;1.00
52621;DHT22;38515;53.160;6.990;2024-03-08T09:47:47;4.70;1.00
52621;DHT22;38515;53.160;6.990;2024-03-08T09:50:14;5.00;1.00
52621;DHT22;38515;53.160;6.990;2024-03-08T09:52:42;5.60;1.00
52621;DHT22;38515;53.160;6.990;2024-03-08T09:55:10;5.00;1.00
52621;DHT22;38515;53.160;6.990;2024-03-08T09:57:43;4.90;46.50
52621;DHT22;38515;53.160;6.990;2024-03-08T10:00:29;5.20;54.30
52621;DHT22;38515;53.160;6.990;2024-03-08T10:02:54;5.80;84.50
52621;DHT22;38515;53.160;6.990;2024-03-08T10:05:25;6.00;20.10
52621;DHT22;38515;53.160;6.990;2024-03-08T10:07:51;6.20;1.00
52621;DHT22;38515;53.160;6.990;2024-03-08T10:10:16;6.50;1.00
52621;DHT22;38515;53.160;6.990;2024-03-08T10:12:42;6.50;1.00
52621;DHT22;38515;53.160;6.990;2024-03-08T10:15:08;6.70;1.00
52621;DHT22;38515;53.160;6.990;2024-03-08T10:17:38;6.00;1.00
52621;DHT22;38515;53.160;6.990;2024-03-08T10:20:14;6.00;1.00
52621;DHT22;38515;53.160;6.990;2024-03-08T10:22:41;6.20;1.00
52621;DHT22;38515;53.160;6.990;2024-03-08T10:25:10;5.90;1.00
52621;DHT22;38515;53.160;6.990;2024-03-08T10:27:38;5.90;1.00
52621;DHT22;38515;53.160;6.990;2024-03-08T10:30:06;5.90;1.00
52621;DHT22;38515;53.160;6.990;2024-03-08T10:32:34;6.20;1.00
52621;DHT22;38515;53.160;6.990;2024-03-08T10:34:59;6.40;1.00
52621;DHT22;38515;53.160;6.990;2024-03-08T10:37:25;6.30;1.00
52621;DHT22;38515;53.160;6.990;2024-03-08T10:40:02;6.40;1.00
52621;DHT22;38515;53.160;6.990;2024-03-08T10:42:40;6.70;1.00
52621;DHT22;38515;53.160;6.990;2024-03-08T10:45:15;6.30;1.00
52621;DHT22;38515;53.160;6.990;2024-03-08T10:47:41;6.20;1.00
52621;DHT22;38515;53.160;6.990;2024-03-08T10:50:18;6.10;1.00
52621;DHT22;38515;53.160;6.990;2024-03-08T10:52:51;6.00;1.00
52621;DHT22;38515;53.160;6.990;2024-03-08T10:55:18;6.00;1.00
52621;DHT22;38515;53.160;6.990;2024-03-08T10:57:46;6.00;1.00
52621;DHT22;38515;53.160;6.990;2024-03-08T11:00:15;6.20;1.00
52621;DHT22;38515;53.160;6.990;2024-03-08T11:02:45;6.20;1.00
52621;DHT22;38515;53.160;6.990;2024-03-08T11:05:31;6.10;1.00
52621;DHT22;38515;53.160;6.990;2024-03-08T11:07:59;6.10;1.00
52621;DHT22;38515;53.160;6.990;2024-03-08T11:10:25;6.40;1.00
52621;DHT22;38515;53.160;6.990;2024-03-08T11:12:52;6.30;1.00
52621;DHT22;38515;53.160;6.990;2024-03-08T11:15:17;6.50;1.00
52621;DHT22;38515;53.160;6.990;2024-03-08T11:17:48;6.70;1.00
52621;DHT22;38515;53.160;6.990;2024-03-08T11:20:19;6.90;1.00
52621;DHT22;38515;53.160;6.990;2024-03-08T11:23:09;7.10;1.00
52621;DHT22;38515;53.160;6.990;2024-03-08T11:25:37;6.60;1.00
52621;DHT22;38515;53.160;6.990;2024-03-08T11:33:29;6.60;1.00
52621;DHT22;38515;53.160;6.990;2024-03-08T11:36:10;6.70;1.00
52621;DHT22;38515;53.160;6.990;2024-03-08T11:38:43;6.90;1.00
52621;DHT22;38515;53.160;6.990;2024-03-08T11:41:19;6.90;1.00
52621;DHT22;38515;53.160;6.990;2024-03-08T11:43:49;7.00;1.00
52621;DHT22;38515;53.160;6.990;2024-03-08T11:46:16;8.10;1.00
52621;DHT22;38515;53.160;6.990;2024-03-08T11:48:43;7.00;1.00
52621;DHT22;38515;53.160;6.990;2024-03-08T11:51:15;7.20;1.00
52621;DHT22;38515;53.160;6.990;2024-03-08T11:53:44;7.40;1.00
52621;DHT22;38515;53.160;6.990;2024-03-08T11:56:12;7.20;1.00
52621;DHT22;38515;53.160;6.990;2024-03-08T11:58:39;7.20;1.00
52621;DHT22;38515;53.160;6.990;2024-03-08T12:01:10;7.60;1.00
52621;DHT22;38515;53.160;6.990;2024-03-08T12:03:39;7.50;1.00
52621;DHT22;38515;53.160;6.990;2024-03-08T12:06:10;7.90;1.00
52621;DHT22;38515;53.160;6.990;2024-03-08T12:08:39;7.50;1.00
52621;DHT22;38515;53.160;6.990;2024-03-08T12:11:04;7.60;1.00
52621;DHT22;38515;53.160;6.990;2024-03-08T12:13:32;7.60;1.00
52621;DHT22;38515;53.160;6.990;2024-03-08T12:16:04;7.70;1.00
52621;DHT22;38515;53.160;6.990;2024-03-08T12:18:34;8.00;1.00
52621;DHT22;38515;53.160;6.990;2024-03-08T12:21:11;7.90;1.00
52621;DHT22;38515;53.160;6.990;2024-03-08T12:23:39;7.80;1.00
52621;DHT22;38515;53.160;6.990;2024-03-08T12:26:25;8.10;1.00
52621;DHT22;38515;53.160;6.990;2024-03-08T12:28:52;7.80;1.00
52621;DHT22;38515;53.160;6.990;2024-03-08T12:31:18;8.00;1.00
52621;DHT22;38515;53.160;6.990;2024-03-08T12:33:55;8.00;1.00
52621;DHT22;38515;53.160;6.990;2024-03-08T12:36:24;8.30;1.00
52621;DHT22;38515;53.160;6.990;2024-03-08T12:38:53;8.20;1.00
52621;DHT22;38515;53.160;6.990;2024-03-08T12:41:22;8.10;1.00
52621;DHT22;38515;53.160;6.990;2024-03-08T12:43:48;8.00;1.00
52621;DHT22;38515;53.160;6.990;2024-03-08T12:46:18;8.50;1.00
52621;DHT22;38515;53.160;6.990;2024-03-08T12:49:02;8.20;1.00
52621;DHT22;38515;53.160;6.990;2024-03-08T12:51:30;8.40;1.00
52621;DHT22;38515;53.160;6.990;2024-03-08T12:53:56;8.50;1.00
52621;DHT22;38515;53.160;6.990;2024-03-08T12:56:37;8.40;1.00
52621;DHT22;38515;53.160;6.990;2024-03-08T12:59:04;8.40;1.00
52621;DHT22;38515;53.160;6.990;2024-03-08T13:01:31;8.40;1.00
52621;DHT22;38515;53.160;6.990;2024-03-08T13:04:03;8.50;1.00
52621;DHT22;38515;53.160;6.990;2024-03-08T13:06:29;8.40;99.90
52621;DHT22;38515;53.160;6.990;2024-03-08T13:08:56;8.20;99.90
52621;DHT22;38515;53.160;6.990;2024-03-08T13:11:24;8.20;99.90
52621;DHT22;38515;53.160;6.990;2024-03-08T13:13:53;8.20;99.90
52621;DHT22;38515;53.160;6.990;2024-03-08T13:16:19;8.20;99.90
52621;DHT22;38515;53.160;6.990;2024-03-08T13:18:46;8.30;99.90
52621;DHT22;38515;53.160;6.990;2024-03-08T13:21:14;9.00;99.90
52621;DHT22;38515;53.160;6.990;2024-03-08T13:23:41;8.40;99.90
52621;DHT22;38515;53.160;6.990;2024-03-08T13:26:11;9.30;99.90
52621;DHT22;38515;53.160;6.990;2024-03-08T13:28:47;8.50;99.90
52621;DHT22;38515;53.160;6.990;2024-03-08T13:31:14;8.60;99.90
52621;DHT22;38515;53.160;6.990;2024-03-08T13:33:40;9.70;99.90
52621;DHT22;38515;53.160;6.990;2024-03-08T13:36:08;8.80;99.90
52621;DHT22;38515;53.160;6.990;2024-03-08T13:38:47;8.80;99.90
52621;DHT22;38515;53.160;6.990;2024-03-08T13:41:15;8.80;99.90
52621;DHT22;38515;53.160;6.990;2024-03-08T13:43:45;8.80;99.90
52621;DHT22;38515;53.160;6.990;2024-03-08T13:46:11;8.90;99.90
52621;DHT22;38515;53.160;6.990;2024-03-08T13:48:37;8.80;99.90
52621;DHT22;38515;53.160;6.990;2024-03-08T13:51:06;8.60;99.90
52621;DHT22;38515;53.160;6.990;2024-03-08T13:53:33;8.60;99.90
52621;DHT22;38515;53.160;6.990;2024-03-08T13:56:02;8.50;99.90
52621;DHT22;38515;53.160;6.990;2024-03-08T13:58:28;8.50;99.90
52621;DHT22;38515;53.160;6.990;2024-03-08T14:00:55;8.60;99.90
52621;DHT22;38515;53.160;6.990;2024-03-08T14:03:22;8.50;99.90
52621;DHT22;38515;53.160;6.990;2024-03-08T14:05:49;8.50;99.90
52621;DHT22;38515;53.160;6.990;2024-03-08T14:08:15;8.50;99.90
52621;DHT22;38515;53.160;6.990;2024-03-08T14:10:43;8.70;99.90
52621;DHT22;38515;53.160;6.990;2024-03-08T14:13:08;8.60;99.90
52621;DHT22;38515;53.160;6.990;2024-03-08T14:15:34;8.60;99.90
52621;DHT22;38515;53.160;6.990;2024-03-08T14:18:01;8.50;99.90
52621;DHT22;38515;53.160;6.990;2024-03-08T14:20:27;8.60;99.90
52621;DHT22;38515;53.160;6.990;2024-03-08T14:22:54;8.60;99.90
52621;DHT22;38515;53.160;6.990;2024-03-08T14:25:20;8.50;99.90
52621;DHT22;38515;53.160;6.990;2024-03-08T14:27:49;8.20;99.90
52621;DHT22;38515;53.160;6.990;2024-03-08T14:30:16;8.30;99.90
52621;DHT22;38515;53.160;6.990;2024-03-08T14:32:58;8.30;99.90
52621;DHT22;38515;53.160;6.990;2024-03-08T14:35:25;8.40;99.90
52621;DHT22;38515;53.160;6.990;2024-03-08T14:37:52;8.60;99.90
52621;DHT22;38515;53.160;6.990;2024-03-08T14:40:20;8.60;99.90
52621;DHT22;38515;53.160;6.990;2024-03-08T14:42:49;8.40;99.90
52621;DHT22;38515;53.160;6.990;2024-03-08T14:45:16;8.30;99.90
52621;DHT22;38515;53.160;6.990;2024-03-08T14:47:48;8.50;99.90
52621;DHT22;38515;53.160;6.990;2024-03-08T14:50:18;8.50;99.90
52621;DHT22;38515;53.160;6.990;2024-03-08T14:52:45;8.50;99.90
52621;DHT22;38515;53.160;6.990;2024-03-08T14:55:14;8.60;1.00
52621;DHT22;38515;53.160;6.990;2024-03-08T14:58:02;8.50;99.90
52621;DHT22;38515;53.160;6.990;2024-03-08T15:00:29;8.30;99.90
52621;DHT22;38515;53.160;6.990;2024-03-08T15:03:01;8.30;99.90
52621;DHT22;38515;53.160;6.990;2024-03-08T15:05:36;8.30;99.90
52621;DHT22;38515;53.160;6.990;2024-03-08T15:08:03;8.20;99.90
52621;DHT22;38515;53.160;6.990;2024-03-08T15:10:35;8.20;99.90
52621;DHT22;38515;53.160;6.990;2024-03-08T15:13:01;9.20;99.90
52621;DHT22;38515;53.160;6.990;2024-03-08T15:15:28;8.20;99.90
52621;DHT22;38515;53.160;6.990;2024-03-08T15:18:01;8.20;99.90
52621;DHT22;38515;53.160;6.990;2024-03-08T15:20:32;8.20;99.90
52621;DHT22;38515;53.160;6.990;2024-03-08T15:23:00;8.00;99.90
52621;DHT22;38515;53.160;6.990;2024-03-08T15:25:28;8.10;99.90
52621;DHT22;38515;53.160;6.990;2024-03-08T15:27:55;8.10;99.90
52621;DHT22;38515;53.160;6.990;2024-03-08T15:30:23;8.10;99.90
52621;DHT22;38515;53.160;6.990;2024-03-08T15:32:52;8.00;99.90
52621;DHT22;38515;53.160;6.990;2024-03-08T15:35:28;8.10;99.90
52621;DHT22;38515;53.160;6.990;2024-03-08T15:37:54;8.00;99.90
52621;DHT22;38515;53.160;6.990;2024-03-08T15:40:23;8.70;99.90
52621;DHT22;38515;53.160;6.990;2024-03-08T15:42:55;8.00;99.90
52621;DHT22;38515;53.160;6.990;2024-03-08T15:45:21;8.00;99.90
52621;DHT22;38515;53.160;6.990;2024-03-08T15:47:49;7.90;99.90
52621;DHT22;38515;53.160;6.990;2024-03-08T15:50:14;8.00;99.90
52621;DHT22;38515;53.160;6.990;2024-03-08T15:52:44;8.00;99.90
52621;DHT22;38515;53.160;6.990;2024-03-08T15:55:17;8.00;99.90
52621;DHT22;38515;53.160;6.990;2024-03-08T15:57:53;8.00;99.90